Time;durP1;ratioP1;P1;durP2;ratioP2;P2;SDS_P1;SDS_P2;PMS_P1;PMS_P2;Temp;Humidity;BMP_temperature;BMP_pressure;BME280_temperature;BME280_humidity;BME280_pressure;Samples;Min_cycle;Max_cycle;Signal;HPM_P1;HPM_P2
2022/04/07 00:02:05;;;;;;;6.72;2.20;;;10.30;99.90;;;;;;4998619;28;20076;-75
2022/04/07 00:04:30;;;;;;;6.30;2.15;;;10.20;99.90;;;;;;5015928;28;20046;-75
2022/04/07 00:06:56;;;;;;;7.38;2.10;;;10.30;99.90;;;;;;5015220;28;20044;-75
2022/04/07 00:09:22;;;;;;;6.25;2.53;;;10.20;99.90;;;;;;5016118;28;20500;-75
2022/04/07 00:11:47;;;;;;;8.15;2.00;;;10.20;99.90;;;;;;4998565;28;20496;-75
2022/04/07 00:14:13;;;;;;;7.22;2.42;;;10.20;99.90;;;;;;5015969;28;20041;-76
2022/04/07 00:16:38;;;;;;;5.22;2.17;;;10.20;99.90;;;;;;5014248;28;20044;-76
2022/04/07 00:19:05;;;;;;;5.88;2.28;;;10.10;99.90;;;;;;5016027;28;20038;-76
2022/04/07 00:21:38;;;;;;;3.17;1.45;;;10.10;99.90;;;;;;4995107;28;20038;-75
2022/04/07 00:24:05;;;;;;;3.58;1.45;;;10.10;99.90;;;;;;4996041;28;20104;-75
2022/04/07 00:26:31;;;;;;;7.72;2.38;;;10.00;99.90;;;;;;5006762;28;20042;-75
2022/04/07 00:28:57;;;;;;;4.47;1.63;;;10.00;99.90;;;;;;5015837;28;20033;-75
2022/04/07 00:31:23;;;;;;;4.25;1.60;;;10.00;99.90;;;;;;4998728;28;20041;-75
2022/04/07 00:33:49;;;;;;;4.10;1.27;;;9.90;99.90;;;;;;5015512;28;20042;-75
2022/04/07 00:36:14;;;;;;;5.40;1.95;;;9.90;99.90;;;;;;4998323;28;20037;-75
2022/04/07 00:38:40;;;;;;;4.95;1.20;;;9.80;99.90;;;;;;4998799;28;20045;-75
2022/04/07 00:41:05;;;;;;;5.80;1.90;;;9.90;99.90;;;;;;5010839;28;20044;-76
2022/04/07 00:43:32;;;;;;;5.70;1.85;;;9.90;99.90;;;;;;5015254;28;20045;-75
2022/04/07 00:45:59;;;;;;;3.67;1.73;;;9.90;99.90;;;;;;5013585;28;20046;-75
2022/04/07 00:48:28;;;;;;;4.57;1.80;;;9.80;99.90;;;;;;5015387;28;20116;-76
2022/04/07 00:50:55;;;;;;;6.13;2.30;;;10.00;99.90;;;;;;5014025;28;20068;-75
2022/04/07 00:53:22;;;;;;;6.75;2.15;;;9.90;99.90;;;;;;4998056;28;20038;-75
2022/04/07 00:55:50;;;;;;;4.80;2.13;;;9.90;99.90;;;;;;5015297;28;20042;-76
2022/04/07 00:58:17;;;;;;;4.68;2.03;;;9.90;99.90;;;;;;4998012;28;20033;-76
2022/04/07 01:00:43;;;;;;;3.75;1.60;;;9.90;99.90;;;;;;5014029;28;20041;-75
2022/04/07 01:03:09;;;;;;;6.10;1.80;;;9.90;99.90;;;;;;4999222;28;20444;-75
2022/04/07 01:05:35;;;;;;;6.88;2.00;;;9.80;99.90;;;;;;4998022;28;20116;-75
2022/04/07 01:08:01;;;;;;;3.42;1.20;;;9.70;99.90;;;;;;4998936;28;20126;-75
2022/04/07 01:10:28;;;;;;;4.85;1.45;;;9.80;99.90;;;;;;5013673;28;20144;-75
2022/04/07 01:12:54;;;;;;;4.45;1.13;;;9.90;99.90;;;;;;5014009;28;20042;-75
2022/04/07 01:15:20;;;;;;;5.28;1.55;;;9.90;99.90;;;;;;5015097;28;20052;-75
2022/04/07 01:17:45;;;;;;;7.55;1.60;;;9.70;99.90;;;;;;4998217;28;20045;-75
2022/04/07 01:20:11;;;;;;;5.13;1.50;;;9.70;99.90;;;;;;5013977;28;20042;-75
2022/04/07 01:22:44;;;;;;;4.50;1.52;;;9.80;99.90;;;;;;4998796;28;20049;-75
2022/04/07 01:25:10;;;;;;;4.15;1.63;;;9.80;99.90;;;;;;5014044;28;20064;-75
2022/04/07 01:27:36;;;;;;;3.20;1.30;;;9.80;99.90;;;;;;5014979;28;20486;-74
2022/04/07 01:30:03;;;;;;;3.78;1.70;;;9.90;99.90;;;;;;5000812;28;20053;-75
2022/04/07 01:32:41;;;;;;;7.00;1.85;;;9.80;99.90;;;;;;5018998;28;20448;-75
2022/04/07 01:35:08;;;;;;;3.90;1.95;;;9.80;99.90;;;;;;5017304;28;20081;-75
2022/04/07 01:37:35;;;;;;;2.83;1.30;;;9.80;99.90;;;;;;5002525;28;20410;-75
2022/04/07 01:40:02;;;;;;;6.82;2.47;;;9.80;99.90;;;;;;5017537;28;20489;-75
2022/04/07 01:42:28;;;;;;;6.70;2.00;;;9.80;99.90;;;;;;5018641;28;20037;-75
2022/04/07 01:44:57;;;;;;;9.15;2.63;;;9.80;99.90;;;;;;5018679;28;20394;-75
2022/04/07 01:47:23;;;;;;;6.45;2.15;;;9.80;99.90;;;;;;4982538;28;20044;-75
2022/04/07 01:49:57;;;;;;;9.32;2.90;;;9.90;99.90;;;;;;5031627;28;20046;-76
2022/04/07 01:52:23;;;;;;;8.30;2.72;;;9.90;99.90;;;;;;5001609;28;20549;-76
2022/04/07 01:54:51;;;;;;;8.65;2.70;;;9.90;99.90;;;;;;5017424;28;20394;-75
2022/04/07 01:57:22;;;;;;;4.07;2.05;;;9.90;99.90;;;;;;5017412;28;20041;-75
2022/04/07 01:59:52;;;;;;;7.05;2.90;;;9.90;99.90;;;;;;5001226;28;20080;-75
2022/04/07 02:02:18;;;;;;;11.18;4.03;;;9.90;99.90;;;;;;4998582;28;20080;-75
2022/04/07 02:04:58;;;;;;;11.85;4.28;;;9.90;99.90;;;;;;4984190;28;20067;-75
2022/04/07 02:07:31;;;;;;;9.90;3.13;;;9.90;99.90;;;;;;5001773;28;20092;-75
2022/04/07 02:10:00;;;;;;;8.20;2.40;;;9.90;99.90;;;;;;5017762;28;20033;-75
2022/04/07 02:12:27;;;;;;;8.73;2.58;;;9.90;99.90;;;;;;5001809;28;20049;-75
2022/04/07 02:14:53;;;;;;;8.45;2.65;;;9.90;99.90;;;;;;5016870;28;20485;-75
2022/04/07 02:17:20;;;;;;;10.18;2.92;;;9.90;99.90;;;;;;5017868;28;20045;-75
2022/04/07 02:19:57;;;;;;;8.63;2.65;;;9.90;99.90;;;;;;5017075;28;20037;-75
2022/04/07 02:22:23;;;;;;;11.07;3.38;;;9.80;99.90;;;;;;5016950;28;20113;-75
2022/04/07 02:24:49;;;;;;;5.28;2.00;;;9.50;99.90;;;;;;5015757;28;20050;-75
2022/04/07 02:27:16;;;;;;;5.03;2.25;;;9.70;99.90;;;;;;5001392;28;20045;-75
2022/04/07 02:29:42;;;;;;;9.15;2.22;;;9.70;99.90;;;;;;5007450;28;20129;-75
2022/04/07 02:32:11;;;;;;;7.38;2.17;;;9.70;99.90;;;;;;4995329;28;20116;-75
2022/04/07 02:34:37;;;;;;;6.95;1.83;;;9.80;99.90;;;;;;5013474;28;20096;-75
2022/04/07 02:37:03;;;;;;;7.82;2.08;;;9.80;99.90;;;;;;4995336;28;20449;-74
2022/04/07 02:39:29;;;;;;;8.85;2.83;;;9.80;99.90;;;;;;4993963;28;20156;-75
2022/04/07 02:41:54;;;;;;;5.68;2.03;;;9.70;99.90;;;;;;5000886;28;20038;-74
2022/04/07 02:44:20;;;;;;;4.53;2.03;;;9.80;99.90;;;;;;4979339;28;20761;-75
2022/04/07 02:46:46;;;;;;;9.82;2.55;;;9.80;99.90;;;;;;4975655;28;20038;-74
2022/04/07 02:49:12;;;;;;;9.20;2.30;;;9.80;99.90;;;;;;4978805;28;20042;-74
2022/04/07 02:51:37;;;;;;;7.05;2.33;;;9.80;99.90;;;;;;4975672;28;20482;-75
2022/04/07 02:54:03;;;;;;;5.93;2.17;;;9.70;99.90;;;;;;4972577;28;20646;-75
2022/04/07 02:56:29;;;;;;;6.30;2.42;;;9.80;99.90;;;;;;4981557;28;20065;-75
2022/04/07 02:58:55;;;;;;;7.35;2.28;;;9.80;99.90;;;;;;4989474;28;20048;-75
2022/04/07 03:01:21;;;;;;;8.02;2.28;;;9.80;99.90;;;;;;4992871;28;20053;-75
2022/04/07 03:03:48;;;;;;;11.63;2.67;;;9.80;99.90;;;;;;4973660;28;20509;-75
2022/04/07 03:06:16;;;;;;;6.47;2.15;;;9.80;99.90;;;;;;4990509;28;20080;-75
2022/04/07 03:08:43;;;;;;;9.90;1.95;;;9.80;99.90;;;;;;4998796;28;20044;-76
2022/04/07 03:11:09;;;;;;;7.80;2.30;;;9.80;99.90;;;;;;4992156;28;20046;-75
2022/04/07 03:13:38;;;;;;;13.02;2.88;;;9.80;99.90;;;;;;4987487;28;20037;-75
2022/04/07 03:16:04;;;;;;;12.07;2.22;;;9.90;99.90;;;;;;4982307;28;20115;-75
2022/04/07 03:18:30;;;;;;;7.35;2.35;;;9.80;99.90;;;;;;4989505;28;20063;-75
2022/04/07 03:20:55;;;;;;;10.50;2.78;;;9.80;99.90;;;;;;4988744;28;20045;-75
2022/04/07 03:23:21;;;;;;;5.22;2.20;;;9.80;99.90;;;;;;4984086;28;20065;-75
2022/04/07 03:25:47;;;;;;;6.22;1.77;;;9.80;99.90;;;;;;4988493;28;20061;-75
2022/04/07 03:28:12;;;;;;;7.32;2.20;;;9.80;99.90;;;;;;4985361;28;20048;-75
2022/04/07 03:30:38;;;;;;;12.10;2.65;;;9.70;99.90;;;;;;4988096;28;20048;-76
2022/04/07 03:33:06;;;;;;;5.95;1.83;;;9.70;99.90;;;;;;4984107;28;20128;-75
2022/04/07 03:35:36;;;;;;;6.60;1.80;;;9.70;99.90;;;;;;4990189;28;20042;-76
2022/04/07 03:38:02;;;;;;;6.03;2.08;;;9.70;99.90;;;;;;4999198;28;20061;-76
2022/04/07 03:40:28;;;;;;;5.95;1.80;;;9.70;99.90;;;;;;5009536;28;20033;-76
2022/04/07 03:42:53;;;;;;;5.68;1.80;;;9.60;99.90;;;;;;5012942;28;20038;-76
2022/04/07 03:45:19;;;;;;;12.00;1.58;;;9.70;99.90;;;;;;5003859;28;20041;-76
2022/04/07 03:47:46;;;;;;;11.43;2.58;;;9.60;99.90;;;;;;4981566;28;20069;-75
2022/04/07 03:50:12;;;;;;;6.53;2.00;;;9.50;99.90;;;;;;5005542;28;20065;-76
2022/04/07 03:52:37;;;;;;;4.10;1.30;;;9.70;99.90;;;;;;4995733;28;20115;-76
2022/04/07 03:55:04;;;;;;;5.15;1.77;;;9.70;99.90;;;;;;5012851;28;20053;-75
2022/04/07 03:57:30;;;;;;;5.15;1.77;;;9.60;99.90;;;;;;4982541;28;20522;-76
2022/04/07 03:59:55;;;;;;;5.65;1.23;;;9.70;99.90;;;;;;4977098;28;20039;-76
2022/04/07 04:02:21;;;;;;;5.07;1.58;;;9.70;99.90;;;;;;4976899;28;20053;-76
2022/04/07 04:04:46;;;;;;;6.88;1.77;;;9.60;99.90;;;;;;4977141;28;20034;-77
2022/04/07 04:07:12;;;;;;;8.57;1.80;;;9.70;99.90;;;;;;4992956;28;20130;-76
2022/04/07 04:09:37;;;;;;;4.55;1.67;;;9.70;99.90;;;;;;4990319;28;20045;-75
2022/04/07 04:12:04;;;;;;;7.55;2.20;;;9.70;99.90;;;;;;4996273;28;20092;-75
2022/04/07 04:14:29;;;;;;;10.20;2.58;;;9.70;99.90;;;;;;5012574;28;20038;-76
2022/04/07 04:16:55;;;;;;;8.05;1.88;;;9.70;99.90;;;;;;5012438;28;20048;-76
2022/04/07 04:19:21;;;;;;;10.30;2.22;;;9.70;99.90;;;;;;4996131;28;20513;-76
2022/04/07 04:21:46;;;;;;;11.15;2.65;;;9.70;99.90;;;;;;5012403;28;20433;-76
2022/04/07 04:24:12;;;;;;;7.97;1.88;;;9.60;99.90;;;;;;5012336;28;20493;-76
2022/04/07 04:26:38;;;;;;;9.10;2.50;;;9.70;99.90;;;;;;5012312;28;20034;-76
2022/04/07 04:29:04;;;;;;;7.10;1.73;;;9.70;99.90;;;;;;5012375;28;20065;-76
2022/04/07 04:31:30;;;;;;;6.45;1.85;;;9.70;99.90;;;;;;5012255;28;20045;-76
2022/04/07 04:33:55;;;;;;;8.50;2.92;;;9.70;99.90;;;;;;5012281;28;20096;-76
2022/04/07 04:36:21;;;;;;;14.13;3.25;;;9.60;99.90;;;;;;5011407;28;20046;-76
2022/04/07 04:38:47;;;;;;;10.57;2.40;;;9.60;99.90;;;;;;4995934;28;20041;-76
2022/04/07 04:41:13;;;;;;;6.30;2.00;;;9.60;99.90;;;;;;5009037;28;20117;-76
2022/04/07 04:43:38;;;;;;;10.80;2.38;;;9.60;99.90;;;;;;4976718;28;20037;-76
2022/04/07 04:46:04;;;;;;;9.75;2.13;;;9.60;99.90;;;;;;5018541;28;20125;-76
2022/04/07 04:48:30;;;;;;;13.27;3.13;;;9.60;99.90;;;;;;5031768;28;20120;-77
2022/04/07 04:50:56;;;;;;;6.88;2.63;;;9.60;99.90;;;;;;5015629;28;20045;-76
2022/04/07 04:53:22;;;;;;;5.10;1.92;;;9.60;99.90;;;;;;5029148;28;20519;-76
2022/04/07 04:55:48;;;;;;;13.90;2.75;;;9.60;99.90;;;;;;5012104;28;20038;-76
2022/04/07 04:58:14;;;;;;;10.85;2.53;;;9.60;99.90;;;;;;5009215;28;20437;-76
2022/04/07 05:00:40;;;;;;;6.80;2.28;;;9.60;99.90;;;;;;4995466;28;20038;-76
2022/04/07 05:03:06;;;;;;;6.57;1.65;;;9.50;99.90;;;;;;4997353;28;20422;-75
2022/04/07 05:05:32;;;;;;;8.80;2.03;;;9.20;99.90;;;;;;4983780;28;20034;-75
2022/04/07 05:07:57;;;;;;;12.07;2.20;;;9.20;99.90;;;;;;4980296;28;20474;-76
2022/04/07 05:10:24;;;;;;;14.73;3.15;;;9.20;99.90;;;;;;5000258;28;20555;-76
2022/04/07 05:12:50;;;;;;;12.20;2.70;;;9.20;99.90;;;;;;4999459;28;20038;-76
2022/04/07 05:15:16;;;;;;;9.35;3.72;;;9.30;99.90;;;;;;5015820;28;20056;-76
2022/04/07 05:17:42;;;;;;;7.85;2.67;;;9.30;99.90;;;;;;5010228;28;20073;-76
2022/04/07 05:20:09;;;;;;;9.82;1.98;;;9.40;99.90;;;;;;4999454;28;20574;-76
2022/04/07 05:22:34;;;;;;;8.25;2.13;;;9.50;99.90;;;;;;4994411;28;20050;-76
2022/04/07 05:25:00;;;;;;;8.30;2.25;;;9.50;99.90;;;;;;4979824;28;20522;-76
2022/04/07 05:27:28;;;;;;;9.07;2.30;;;9.40;99.90;;;;;;4979683;28;20042;-76
2022/04/07 05:29:53;;;;;;;10.07;2.00;;;9.40;99.90;;;;;;4979963;28;20054;-75
2022/04/07 05:32:19;;;;;;;8.63;1.80;;;9.20;99.90;;;;;;4995856;28;20555;-75
2022/04/07 05:34:44;;;;;;;11.68;2.15;;;9.20;99.90;;;;;;4984410;28;20045;-75
2022/04/07 05:37:10;;;;;;;11.98;2.03;;;9.10;99.90;;;;;;4998970;28;20064;-75
2022/04/07 05:39:35;;;;;;;9.32;1.83;;;8.90;99.90;;;;;;5015132;28;20037;-75
2022/04/07 05:42:01;;;;;;;14.02;2.42;;;8.70;99.90;;;;;;5015278;28;20049;-75
2022/04/07 05:44:27;;;;;;;11.52;2.80;;;8.50;99.90;;;;;;5015300;28;20060;-73
2022/04/07 05:46:52;;;;;;;7.88;1.52;;;8.40;99.90;;;;;;5015488;28;20108;-73
2022/04/07 05:49:18;;;;;;;4.90;1.00;;;7.90;99.90;;;;;;4998791;28;20042;-73
2022/04/07 05:51:43;;;;;;;2.05;0.80;;;6.90;99.90;;;;;;5011622;28;20038;-73
2022/04/07 05:54:09;;;;;;;2.47;0.80;;;6.80;99.90;;;;;;5015047;28;20129;-73
2022/04/07 05:56:34;;;;;;;4.70;0.90;;;6.80;99.90;;;;;;5007348;28;20450;-73
2022/04/07 05:59:00;;;;;;;2.97;0.60;;;6.60;99.90;;;;;;4979159;28;20125;-74
2022/04/07 06:01:26;;;;;;;5.03;1.02;;;6.60;99.90;;;;;;4995338;28;20410;-74
2022/04/07 06:03:51;;;;;;;4.72;1.23;;;6.70;99.90;;;;;;4995310;28;20046;-75
2022/04/07 06:06:17;;;;;;;4.13;0.95;;;6.60;99.90;;;;;;4979104;28;20126;-75
2022/04/07 06:08:42;;;;;;;4.97;0.93;;;6.60;99.90;;;;;;5001129;28;20045;-75
2022/04/07 06:11:08;;;;;;;4.10;1.00;;;6.60;99.90;;;;;;4995367;28;20037;-75
2022/04/07 06:13:34;;;;;;;6.75;1.20;;;6.70;99.90;;;;;;5009102;28;20076;-75
2022/04/07 06:16:00;;;;;;;7.22;1.75;;;6.50;99.90;;;;;;5011896;28;20402;-75
2022/04/07 06:18:27;;;;;;;3.42;1.20;;;6.50;99.90;;;;;;5011786;28;20036;-75
2022/04/07 06:20:53;;;;;;;4.88;1.00;;;6.40;99.90;;;;;;5013120;28;20038;-75
2022/04/07 06:23:18;;;;;;;6.95;1.23;;;6.30;99.90;;;;;;4996611;28;20053;-75
2022/04/07 06:25:44;;;;;;;2.75;0.70;;;6.50;99.90;;;;;;4996317;28;20124;-75
2022/04/07 06:28:10;;;;;;;6.13;1.55;;;6.20;99.90;;;;;;4993105;28;20036;-75
2022/04/07 06:30:35;;;;;;;4.35;0.95;;;6.20;99.90;;;;;;5014339;28;20461;-74
2022/04/07 06:33:01;;;;;;;3.97;0.85;;;6.40;99.90;;;;;;4997297;28;20046;-74
2022/04/07 06:35:26;;;;;;;3.63;0.93;;;6.50;99.90;;;;;;5008950;28;20035;-74
2022/04/07 06:37:55;;;;;;;7.38;0.93;;;6.50;99.90;;;;;;4995802;28;20053;-74
2022/04/07 06:40:23;;;;;;;3.45;0.95;;;6.30;99.90;;;;;;5013137;28;20084;-74
2022/04/07 06:42:49;;;;;;;0.73;0.30;;;6.50;99.90;;;;;;4996447;28;20379;-75
2022/04/07 06:45:15;;;;;;;3.08;0.52;;;6.70;99.90;;;;;;5012998;28;20095;-74
2022/04/07 06:47:42;;;;;;;1.27;0.52;;;6.80;99.90;;;;;;4997448;28;20517;-74
2022/04/07 06:50:14;;;;;;;4.40;0.70;;;6.80;99.90;;;;;;4997286;28;20038;-75
2022/04/07 06:52:40;;;;;;;0.90;0.43;;;6.80;99.90;;;;;;5012476;28;20048;-75
2022/04/07 06:55:07;;;;;;;7.53;0.73;;;6.70;99.90;;;;;;4996543;28;20125;-75
2022/04/07 06:58:08;;;;;;;1.45;0.47;;;6.70;99.90;;;;;;4996296;28;20042;-75
2022/04/07 07:00:35;;;;;;;4.20;0.55;;;6.70;99.90;;;;;;4994784;28;20129;-76
2022/04/07 07:03:03;;;;;;;1.15;0.35;;;6.70;99.90;;;;;;5011764;28;20470;-75
2022/04/07 07:05:30;;;;;;;0.80;0.45;;;6.60;99.90;;;;;;5002983;28;20041;-76
2022/04/07 07:07:56;;;;;;;1.75;0.43;;;6.80;99.90;;;;;;4993873;28;20038;-75
2022/04/07 07:10:28;;;;;;;2.58;0.70;;;6.90;99.90;;;;;;5012481;28;20486;-76
2022/04/07 07:12:54;;;;;;;2.78;0.52;;;6.90;99.90;;;;;;5013626;28;20463;-75
2022/04/07 07:15:23;;;;;;;2.72;0.75;;;7.00;99.90;;;;;;5012461;28;20069;-75
2022/04/07 07:17:49;;;;;;;1.95;0.50;;;7.00;99.90;;;;;;5004571;28;20490;-75
2022/04/07 07:20:15;;;;;;;3.35;0.77;;;6.90;99.90;;;;;;5010813;28;20048;-76
2022/04/07 07:22:41;;;;;;;1.52;0.60;;;6.90;99.90;;;;;;5012027;28;20165;-76
2022/04/07 07:25:09;;;;;;;0.88;0.40;;;6.90;99.90;;;;;;4995919;28;20088;-76
2022/04/07 07:27:43;;;;;;;1.42;0.38;;;6.90;99.90;;;;;;4994867;28;20041;-76
2022/04/07 07:30:10;;;;;;;3.30;0.50;;;6.90;99.90;;;;;;5012720;28;20043;-76
2022/04/07 07:32:37;;;;;;;1.15;0.35;;;7.00;99.90;;;;;;4994837;28;20049;-76
2022/04/07 07:35:04;;;;;;;1.75;0.45;;;7.00;99.90;;;;;;4995448;28;20045;-76
2022/04/07 07:37:29;;;;;;;0.40;0.30;;;6.90;99.90;;;;;;5012985;28;20475;-76
2022/04/07 07:39:55;;;;;;;0.13;0.13;;;6.90;99.90;;;;;;5002834;28;20568;-76
2022/04/07 07:42:21;;;;;;;0.40;0.20;;;7.00;99.90;;;;;;4988108;28;20041;-76
2022/04/07 07:44:47;;;;;;;0.60;0.30;;;7.00;99.90;;;;;;5010444;28;20120;-76
2022/04/07 07:47:12;;;;;;;0.22;0.22;;;7.00;99.90;;;;;;5012032;28;20042;-76
2022/04/07 07:49:38;;;;;;;2.28;0.50;;;7.00;99.90;;;;;;5012405;28;20046;-76
2022/04/07 07:52:03;;;;;;;4.55;0.50;;;7.00;99.90;;;;;;5011721;28;20038;-76
2022/04/07 07:54:29;;;;;;;0.60;0.40;;;7.00;99.90;;;;;;4994869;28;20033;-76
2022/04/07 07:56:55;;;;;;;0.35;0.17;;;7.00;99.90;;;;;;4995897;28;20042;-76
2022/04/07 07:59:21;;;;;;;0.20;0.20;;;7.00;99.90;;;;;;4994891;28;20457;-76
2022/04/07 08:01:48;;;;;;;1.98;0.60;;;7.00;99.90;;;;;;5011660;28;20046;-76
2022/04/07 08:04:15;;;;;;;1.90;0.50;;;7.00;99.90;;;;;;4992194;28;20569;-76
2022/04/07 08:06:43;;;;;;;0.73;0.20;;;7.00;99.90;;;;;;4995756;28;20042;-76
2022/04/07 08:09:10;;;;;;;0.75;0.30;;;7.20;99.90;;;;;;4995923;28;20076;-76
2022/04/07 08:11:36;;;;;;;0.93;0.40;;;7.10;99.90;;;;;;5010178;28;20041;-76
2022/04/07 08:14:02;;;;;;;3.20;0.93;;;7.20;99.90;;;;;;4996067;28;20366;-76
2022/04/07 08:16:30;;;;;;;0.57;0.40;;;7.20;99.90;;;;;;5011627;28;20072;-77
2022/04/07 08:18:56;;;;;;;1.50;0.82;;;7.20;99.90;;;;;;5011140;28;20045;-76
2022/04/07 08:21:21;;;;;;;4.13;0.75;;;7.10;99.90;;;;;;4994550;28;20563;-76
2022/04/07 08:23:47;;;;;;;9.75;0.70;;;7.20;99.90;;;;;;5007497;28;20405;-76
2022/04/07 08:26:12;;;;;;;2.85;0.38;;;7.20;99.90;;;;;;5008974;28;20033;-76
2022/04/07 08:28:39;;;;;;;2.13;1.10;;;7.20;99.90;;;;;;5011948;28;20037;-76
2022/04/07 08:31:05;;;;;;;3.60;0.88;;;7.20;99.90;;;;;;5010851;28;20049;-76
2022/04/07 08:33:30;;;;;;;4.53;1.20;;;7.30;99.90;;;;;;5011127;28;20072;-76
2022/04/07 08:35:56;;;;;;;3.80;0.95;;;7.20;99.90;;;;;;4994368;28;20037;-76
2022/04/07 08:38:21;;;;;;;2.95;0.77;;;7.20;99.90;;;;;;5011496;28;20042;-76
2022/04/07 08:40:51;;;;;;;5.35;2.10;;;7.30;99.90;;;;;;4994607;28;20168;-75
2022/04/07 08:43:17;;;;;;;3.05;0.70;;;7.40;99.90;;;;;;5011571;28;20048;-76
2022/04/07 08:45:44;;;;;;;2.78;1.67;;;7.60;99.90;;;;;;5010546;28;20041;-76
2022/04/07 08:48:11;;;;;;;4.35;0.77;;;7.70;99.90;;;;;;5012039;28;20041;-76
2022/04/07 08:50:40;;;;;;;1.83;0.70;;;7.70;99.90;;;;;;5010451;28;20038;-76
2022/04/07 08:53:06;;;;;;;3.22;0.80;;;7.90;99.90;;;;;;5011719;28;20490;-76
2022/04/07 08:55:33;;;;;;;1.55;0.47;;;8.00;99.90;;;;;;4994788;28;20037;-76
2022/04/07 08:57:59;;;;;;;4.55;0.98;;;8.20;99.90;;;;;;4994926;28;20046;-76
2022/04/07 09:00:25;;;;;;;3.70;0.55;;;8.30;99.90;;;;;;4994035;28;20044;-76
2022/04/07 09:02:53;;;;;;;3.83;0.95;;;8.40;99.90;;;;;;5011809;28;20410;-76
2022/04/07 09:05:23;;;;;;;5.53;0.95;;;8.60;99.90;;;;;;5010367;28;20044;-76
2022/04/07 09:07:51;;;;;;;5.20;1.27;;;8.70;99.90;;;;;;5011552;28;20041;-76
2022/04/07 09:10:19;;;;;;;2.25;1.00;;;8.70;99.90;;;;;;4989616;28;20044;-76
2022/04/07 09:12:45;;;;;;;4.05;1.30;;;8.80;99.90;;;;;;4993078;28;20177;-76
2022/04/07 09:15:12;;;;;;;6.13;1.27;;;8.90;99.90;;;;;;4991862;28;20049;-76
2022/04/07 09:17:52;;;;;;;1.98;0.43;;;9.10;99.90;;;;;;4992127;28;20033;-76
2022/04/07 09:20:19;;;;;;;1.67;0.80;;;9.20;99.90;;;;;;5011180;28;20042;-76
2022/04/07 09:22:45;;;;;;;3.42;0.73;;;9.10;99.90;;;;;;5009728;28;20049;-75
2022/04/07 09:25:11;;;;;;;2.60;0.77;;;9.10;99.90;;;;;;4995308;28;20565;-77
2022/04/07 09:27:40;;;;;;;6.20;1.17;;;9.10;99.90;;;;;;4993423;28;20402;-76
2022/04/07 09:30:10;;;;;;;8.30;1.17;;;9.00;99.90;;;;;;5010921;28;20030;-76
2022/04/07 09:32:43;;;;;;;1.73;0.45;;;9.10;99.90;;;;;;5011493;28;20037;-76
2022/04/07 09:35:11;;;;;;;6.63;0.98;;;9.30;99.90;;;;;;5011483;28;20065;-76
2022/04/07 09:37:38;;;;;;;2.97;0.70;;;9.50;99.90;;;;;;4989706;28;20029;-76
2022/04/07 09:40:12;;;;;;;4.47;0.95;;;9.60;99.90;;;;;;5009531;28;20046;-76
2022/04/07 09:42:38;;;;;;;7.07;1.58;;;9.60;99.90;;;;;;4997306;28;20057;-76
2022/04/07 09:45:07;;;;;;;7.78;1.45;;;9.60;99.90;;;;;;4975423;28;20053;-76
2022/04/07 09:47:37;;;;;;;9.25;1.70;;;9.70;99.90;;;;;;5007730;28;20057;-76
2022/04/07 09:50:04;;;;;;;10.20;1.73;;;9.60;99.90;;;;;;5012131;28;20049;-76
2022/04/07 09:52:30;;;;;;;3.20;1.13;;;9.60;99.90;;;;;;4996549;28;20060;-76
2022/04/07 09:55:02;;;;;;;7.53;1.13;;;9.60;99.90;;;;;;4996835;28;20065;-76
2022/04/07 09:57:29;;;;;;;4.70;1.02;;;9.50;99.90;;;;;;5012968;28;20053;-76
2022/04/07 09:59:56;;;;;;;5.63;1.35;;;9.90;99.90;;;;;;4997711;28;20041;-76
2022/04/07 10:02:23;;;;;;;6.85;1.20;;;9.90;99.90;;;;;;4997089;28;20034;-76
2022/04/07 10:04:50;;;;;;;9.68;1.35;;;9.90;99.90;;;;;;4993505;28;20129;-76
2022/04/07 10:07:16;;;;;;;6.63;1.55;;;9.70;99.90;;;;;;5008436;28;20037;-76
2022/04/07 10:09:42;;;;;;;11.23;2.17;;;9.60;99.90;;;;;;4996696;28;20042;-76
2022/04/07 10:12:12;;;;;;;6.30;1.10;;;9.60;99.90;;;;;;5013240;28;20037;-76
2022/04/07 10:14:38;;;;;;;8.93;1.48;;;9.70;99.90;;;;;;4993913;28;20577;-76
2022/04/07 10:17:05;;;;;;;9.68;2.03;;;9.80;99.90;;;;;;4994940;28;20053;-75
2022/04/07 10:19:53;;;;;;;9.25;1.38;;;9.80;99.90;;;;;;5010063;28;20061;-76
2022/04/07 10:22:29;;;;;;;6.55;1.13;;;10.00;99.90;;;;;;5015924;28;20041;-76
2022/04/07 10:25:01;;;;;;;7.60;1.40;;;10.30;99.90;;;;;;5030434;28;20045;-76
2022/04/07 10:27:29;;;;;;;10.60;1.88;;;10.30;99.90;;;;;;5017644;28;20428;-76
2022/04/07 10:30:06;;;;;;;8.40;1.83;;;10.30;99.90;;;;;;5034157;28;20042;-76
2022/04/07 10:32:45;;;;;;;8.30;1.80;;;10.40;99.90;;;;;;5017452;28;20034;-75
2022/04/07 10:35:31;;;;;;;12.07;3.00;;;10.30;99.90;;;;;;4999057;28;20045;-76
2022/04/07 10:37:58;;;;;;;8.23;1.90;;;9.70;99.90;;;;;;4999265;28;20508;-76
2022/04/07 10:40:37;;;;;;;12.82;2.55;;;9.30;99.90;;;;;;4997576;28;20367;-76
2022/04/07 10:43:13;;;;;;;11.15;1.65;;;9.10;99.90;;;;;;5010442;28;20045;-76
2022/04/07 10:46:00;;;;;;;9.35;1.80;;;9.40;99.90;;;;;;4996688;28;20045;-76
2022/04/07 10:48:28;;;;;;;12.25;1.60;;;9.50;99.90;;;;;;4981330;28;20049;-76
2022/04/07 10:51:02;;;;;;;7.20;1.60;;;9.50;99.90;;;;;;5005001;28;20056;-76
2022/04/07 10:53:35;;;;;;;9.00;2.42;;;9.60;99.90;;;;;;4990478;28;20042;-76
2022/04/07 10:56:02;;;;;;;9.38;1.80;;;9.90;99.90;;;;;;4995933;28;20501;-76
2022/04/07 10:58:48;;;;;;;9.73;1.77;;;9.90;99.90;;;;;;4987327;28;20049;-76
2022/04/07 11:01:14;;;;;;;9.27;1.80;;;9.80;99.90;;;;;;5014979;28;20409;-76
2022/04/07 11:03:42;;;;;;;7.85;1.65;;;9.60;99.90;;;;;;4995850;28;20085;-76
2022/04/07 11:06:10;;;;;;;9.48;1.60;;;9.30;99.90;;;;;;4995590;28;20049;-76
2022/04/07 11:08:36;;;;;;;19.80;2.70;;;9.20;99.90;;;;;;4979097;28;20654;-76
2022/04/07 11:11:01;;;;;;;11.38;1.88;;;9.00;99.90;;;;;;4995495;28;20128;-75
2022/04/07 11:13:43;;;;;;;10.43;2.28;;;9.10;99.90;;;;;;4996185;28;20038;-76
2022/04/07 11:16:23;;;;;;;4.93;1.15;;;9.00;99.90;;;;;;4993176;28;20389;-75
2022/04/07 11:19:11;;;;;;;8.98;2.13;;;8.80;99.90;;;;;;4998656;28;20079;-75
2022/04/07 11:21:50;;;;;;;12.82;1.85;;;8.50;99.90;;;;;;5014720;28;20485;-76
2022/04/07 11:24:24;;;;;;;11.20;1.63;;;8.50;99.90;;;;;;4998524;28;20453;-76
2022/04/07 11:26:53;;;;;;;10.10;1.50;;;8.60;99.90;;;;;;5014817;28;20034;-76
2022/04/07 11:29:32;;;;;;;10.40;1.67;;;8.70;99.90;;;;;;5015574;28;20044;-76
2022/04/07 11:32:16;;;;;;;8.73;1.60;;;8.80;99.90;;;;;;5014468;28;20131;-76
2022/04/07 11:34:48;;;;;;;10.52;1.80;;;9.20;99.90;;;;;;5014607;28;20033;-76
2022/04/07 11:37:19;;;;;;;;;;;9.30;99.90;;;;;;5015170;28;20045;-76
2022/04/07 11:39:47;;;;;;;6.95;1.90;;;9.40;99.90;;;;;;5014731;28;20296;-75
2022/04/07 11:42:15;;;;;;;12.43;1.88;;;9.60;99.90;;;;;;4997919;28;20041;-76
2022/04/07 11:44:42;;;;;;;13.18;2.22;;;9.70;99.90;;;;;;4998135;28;20040;-76
2022/04/07 11:47:32;;;;;;;15.10;2.42;;;9.90;99.90;;;;;;5014627;28;20037;-76
2022/04/07 11:49:58;;;;;;;12.52;2.40;;;9.70;99.90;;;;;;5007145;28;20095;-76
2022/04/07 11:52:29;;;;;;;12.02;2.65;;;9.70;99.90;;;;;;5013951;28;20045;-76
2022/04/07 11:54:56;;;;;;;12.88;2.08;;;9.70;99.90;;;;;;4997897;28;20069;-75
2022/04/07 11:57:28;;;;;;;8.52;1.77;;;9.90;99.90;;;;;;5015077;28;20045;-76
2022/04/07 11:59:55;;;;;;;10.48;2.03;;;10.10;99.90;;;;;;4997743;28;20092;-75
2022/04/07 12:02:21;;;;;;;12.80;2.55;;;10.00;99.90;;;;;;5001126;28;20514;-76
2022/04/07 12:04:54;;;;;;;9.30;2.25;;;10.00;99.90;;;;;;5014169;28;20037;-75
2022/04/07 12:07:20;;;;;;;12.73;2.70;;;10.10;99.90;;;;;;5013964;28;20080;-76
2022/04/07 12:09:47;;;;;;;14.75;2.75;;;10.10;99.90;;;;;;4997565;28;20069;-75
2022/04/07 12:12:13;;;;;;;12.13;2.22;;;10.20;99.90;;;;;;5008482;28;20038;-75
2022/04/07 12:14:42;;;;;;;8.20;1.50;;;10.00;99.90;;;;;;4994336;28;20084;-76
2022/04/07 12:17:09;;;;;;;8.82;1.50;;;10.20;99.90;;;;;;4994637;28;20042;-76
2022/04/07 12:19:45;;;;;;;8.48;2.33;;;10.40;99.90;;;;;;4994354;28;20445;-76
2022/04/07 12:22:10;;;;;;;9.40;2.45;;;10.20;99.90;;;;;;4993873;28;20092;-75
2022/04/07 12:24:36;;;;;;;11.10;2.05;;;10.20;99.90;;;;;;4997193;28;20077;-75
2022/04/07 12:27:04;;;;;;;8.57;1.90;;;10.00;99.90;;;;;;5013852;28;20554;-76
2022/04/07 12:29:33;;;;;;;10.05;1.98;;;10.00;99.90;;;;;;4997780;28;20133;-75
2022/04/07 12:32:06;;;;;;;7.50;2.03;;;10.40;99.90;;;;;;5013562;28;20052;-75
2022/04/07 12:34:34;;;;;;;11.73;2.30;;;10.30;99.90;;;;;;5005566;28;20037;-75
2022/04/07 12:37:00;;;;;;;11.90;3.05;;;10.40;99.90;;;;;;4994465;28;20045;-75
2022/04/07 12:39:34;;;;;;;9.15;2.00;;;10.20;99.90;;;;;;4994151;28;20371;-75
2022/04/07 12:42:05;;;;;;;10.00;1.88;;;10.50;99.90;;;;;;4977935;28;20125;-75
2022/04/07 12:44:33;;;;;;;11.98;1.75;;;10.40;99.90;;;;;;4977551;28;20502;-75
2022/04/07 12:47:04;;;;;;;9.23;1.75;;;9.70;99.90;;;;;;4978225;28;20088;-75
2022/04/07 12:49:34;;;;;;;5.78;1.27;;;8.70;99.90;;;;;;4994575;28;20038;-75
2022/04/07 12:52:14;;;;;;;5.13;1.23;;;8.40;99.90;;;;;;4977825;28;20495;-75
2022/04/07 12:55:03;;;;;;;4.55;1.17;;;8.00;99.90;;;;;;4993890;28;20505;-76
2022/04/07 12:57:34;;;;;;;6.78;1.33;;;7.90;99.90;;;;;;5002614;28;20099;-76